• Join FlightAware (Why Join?)
  • Login
  • US Flag 
06:17PM EDT


 

Airport Tracker/Info


-or-


 

Live Flight TrackerFlight Track Log ✈ VH-VFC ✈ 07-Jun-2013 ✈ YSBK / BWU - YSCN / CDU

Flight Track Log - Related Links

Times and Time Zones

All times are in EDT time to prevent confusion due to time zone crossing. See the VH-VFC flight status page for this flight to view local times or setup timezone preferences in your user account.

Time Position Orientation Groundspeed Altitude Reporting Facility
EDT Latitude Longitude Course Direction KTS MPH feet Rate Location/Type
11:56PM -33.9148 150.9777 316° Northwest 77 89 400  Level Aus ATC (RADAR)
11:57PM -33.9071 150.9689 316° Northwest 74 85 800 660 Climbing Aus ATC (RADAR)
11:58PM -33.8917 150.9502 315° West 74 85 1,400 660 Climbing Aus ATC (RADAR)
11:58PM -33.8872 150.9440 312° West 73 84 1,700 660 Climbing Aus ATC (RADAR)
11:59PM -33.8802 150.9352 314° West 71 82 2,000 480 Climbing Aus ATC (RADAR)
11:59PM -33.8675 150.9185 312° West 73 84 2,400 480 Climbing Aus ATC (RADAR)
12:00AM -33.8630 150.9123 311° West 72 83 2,600 600 Climbing Aus ATC (RADAR)
12:00AM -33.8559 150.9033 314° West 72 83 2,900 180 Climbing Aus ATC (RADAR)
12:01AM -33.8343 150.9001 353° North 96 110 2,900  Level Aus ATC (RADAR)
12:02AM -33.8214 150.9045 16° North 96 110 2,900  Level Aus ATC (RADAR)
12:02AM -33.8013 150.9106 14° North 101 116 2,900  Level Aus ATC (RADAR)
12:03AM -33.7857 150.9231 34° Northeast 100 115 2,900  Level Aus ATC (RADAR)
12:03AM -33.7779 150.9299 36° Northeast 103 119 2,900  Level Aus ATC (RADAR)
12:04AM -33.7677 150.9385 35° Northeast 107 123 2,900  Level Aus ATC (RADAR)
12:05AM -33.7438 150.9583 35° Northeast 113 130 2,900  Level Aus ATC (RADAR)
12:05AM -33.7359 150.9658 38° Northeast 110 127 2,900  Level Aus ATC (RADAR)
12:06AM -33.7196 150.9790 34° Northeast 105 121 2,900  Level Aus ATC (RADAR)
12:08AM -33.6645 151.0082 24° Northeast 86 99 2,900 -60 Level Aus ATC (RADAR)
12:11AM -33.6470 150.9505 290° West 67 77 2,600 -240 Descending Aus ATC (RADAR)
12:13AM -33.6349 150.8991 286° West 77 89 1,900 -420 Descending Aus ATC (RADAR)
12:14AM -33.6270 150.8684 287° West 71 82 1,300 -480 Descending Aus ATC (RADAR)
12:16AM -33.6149 150.8217 287° West 75 86 500  Descending Aus ATC (RADAR)
12:18AM -33.6294 150.7854 245° Southwest 90 104 1,500 480 Climbing Aus ATC (RADAR)
12:20AM -33.6657 150.7833 183° South 91 105 2,300 540 Climbing Aus ATC (RADAR)
12:21AM -33.6968 150.7649 206° Southwest 81 93 3,200 540 Climbing Aus ATC (RADAR)
12:22AM -33.7036 150.7605 208° Southwest 82 94 3,300 360 Climbing Aus ATC (RADAR)
12:23AM -33.7364 150.7419 205° Southwest 90 104 3,900 120 Climbing Aus ATC (RADAR)
12:26AM -33.8091 150.7322 186° South 104 120 3,900  Level Aus ATC (RADAR)
12:27AM -33.8505 150.7282 185° South 105 121 3,900  Level Aus ATC (RADAR)
12:28AM -33.8598 150.7262 190° South 102 117 3,900  Level Aus ATC (RADAR)
12:29AM -33.9031 150.7166 190° South 101 116 3,900  Level Aus ATC (RADAR)
12:32AM -33.9735 150.7051 188° South 91 105 3,900  Level Aus ATC (RADAR)
12:33AM -34.0094 150.6936 195° South 87 100 3,900  Level Aus ATC (RADAR)
12:34AM -34.0178 150.6909 195° South 93 107 3,900  Level Aus ATC (RADAR)
12:36AM -34.0646 150.6775 193° South 89 102 3,900 -60 Level Aus ATC (RADAR)
12:38AM -34.0379 150.6971 31° Northeast 88 101 3,800 -60 Descending Aus ATC (RADAR)
12:40AM -34.0746 150.6755 206° Southwest 91 105 3,700 -60 Descending Aus ATC (RADAR)
12:41AM -34.0594 150.7016 55° Northeast 102 117 3,700 -60 Level Aus ATC (RADAR)
12:43AM -34.0245 150.7025 North 91 105 3,600 -360 Descending Aus ATC (RADAR)
12:44AM -33.9793 150.7051 North 102 117 2,800 -480 Descending Aus ATC (RADAR)
12:46AM -33.9616 150.6862 318° Northwest 95 109 2,200 -480 Descending Aus ATC (RADAR)
12:46AM -33.9707 150.6907 158° South 103 119 2,000 -360 Descending Aus ATC (RADAR)
12:49AM -34.0320 150.6915 179° South 92 106 1,200 -180 Descending Aus ATC (RADAR)
12:50AM -34.0455 150.7205 119° Southeast 103 119 1,300 -180 Climbing Aus ATC (RADAR)
12:52AM -34.0286 150.7117 337° Northwest 58 67 700 -480 Descending Aus ATC (RADAR)
12:52AM -34.0308 150.7058 246° West 58 67 500 -540 Descending Aus ATC (RADAR)
12:52AM -34.0325 150.7016 244° Southwest 57 66 400 -420 Descending Aus ATC (RADAR)
12:54AM -34.0402 150.6872 190° South  Level FlightAware Approximate